createdAt,value
2018-07-19T00:00:23.290Z,1019.08
2018-07-19T00:01:50.928Z,1019.06
2018-07-19T00:03:18.162Z,1019.11
2018-07-19T00:04:45.511Z,1019.12
2018-07-19T00:06:13.042Z,1019.10
2018-07-19T00:07:40.287Z,1019.13
2018-07-19T00:09:07.541Z,1019.12
2018-07-19T00:10:35.167Z,1019.14
2018-07-19T00:12:02.185Z,1019.18
2018-07-19T00:13:29.571Z,1019.20
2018-07-19T00:14:56.976Z,1019.21
2018-07-19T00:16:24.515Z,1019.22
2018-07-19T00:17:51.721Z,1019.23
2018-07-19T00:19:19.253Z,1019.22
2018-07-19T00:20:46.881Z,1019.20
2018-07-19T00:22:14.377Z,1019.21
2018-07-19T00:23:41.846Z,1019.19
2018-07-19T00:25:09.431Z,1019.21
2018-07-19T00:26:36.887Z,1019.18
2018-07-19T00:28:04.505Z,1019.18
2018-07-19T00:29:31.774Z,1019.19
2018-07-19T00:30:59.381Z,1019.19
2018-07-19T00:32:26.349Z,1019.20
2018-07-19T00:33:53.632Z,1019.20
2018-07-19T00:35:20.782Z,1019.20
2018-07-19T00:36:48.155Z,1019.21
2018-07-19T00:38:15.389Z,1019.21
2018-07-19T00:39:43.032Z,1019.21
2018-07-19T00:41:10.462Z,1019.19
2018-07-19T00:42:37.899Z,1019.19
2018-07-19T00:44:05.118Z,1019.17
2018-07-19T00:45:32.274Z,1019.17
2018-07-19T00:46:59.672Z,1019.16
2018-07-19T00:48:26.927Z,1019.15
2018-07-19T00:49:54.301Z,1019.17
2018-07-19T00:51:21.787Z,1019.15
2018-07-19T00:52:49.229Z,1019.13
2018-07-19T00:54:16.601Z,1019.13
2018-07-19T00:55:43.698Z,1019.14
2018-07-19T00:57:11.195Z,1019.14
2018-07-19T00:58:38.810Z,1019.14
2018-07-19T01:00:05.916Z,1019.15
2018-07-19T01:01:33.442Z,1019.13
2018-07-19T01:03:00.700Z,1019.13
2018-07-19T01:04:28.025Z,1019.11
2018-07-19T01:05:55.545Z,1019.10
2018-07-19T01:07:23.017Z,1019.09
2018-07-19T01:08:50.278Z,1019.05
2018-07-19T01:10:17.721Z,1019.04
2018-07-19T01:11:45.175Z,1019.03
2018-07-19T01:13:12.526Z,1019.03
2018-07-19T01:14:39.380Z,1019.07
2018-07-19T01:16:06.758Z,1019.06
2018-07-19T01:17:34.205Z,1019.07
2018-07-19T01:19:01.631Z,1019.07
2018-07-19T01:20:29.137Z,1019.09
2018-07-19T01:21:56.490Z,1019.09
2018-07-19T01:23:24.206Z,1019.10
2018-07-19T01:24:51.187Z,1019.10
2018-07-19T01:26:18.550Z,1019.11
2018-07-19T01:27:45.888Z,1019.12
2018-07-19T01:29:13.421Z,1019.14
2018-07-19T01:30:40.615Z,1019.15
2018-07-19T01:32:08.067Z,1019.17
2018-07-19T01:33:35.278Z,1019.18
2018-07-19T01:35:02.518Z,1019.16
2018-07-19T01:36:29.725Z,1019.16
2018-07-19T01:37:57.528Z,1019.14
2018-07-19T01:39:24.958Z,1019.16
2018-07-19T01:40:52.538Z,1019.14
2018-07-19T01:42:19.772Z,1019.15
2018-07-19T01:43:47.217Z,1019.14
2018-07-19T01:45:14.763Z,1019.15
2018-07-19T01:46:41.916Z,1019.15
2018-07-19T01:48:09.442Z,1019.15
2018-07-19T01:49:36.727Z,1019.15
2018-07-19T01:51:04.059Z,1019.15
2018-07-19T01:52:31.312Z,1019.15
2018-07-19T01:53:58.568Z,1019.14
2018-07-19T01:55:26.034Z,1019.18
2018-07-19T01:56:53.393Z,1019.18
2018-07-19T01:58:20.697Z,1019.16
2018-07-19T01:59:47.674Z,1019.14
2018-07-19T02:01:15.061Z,1019.14
2018-07-19T02:02:42.445Z,1019.12
2018-07-19T02:04:09.867Z,1019.15
2018-07-19T02:05:37.578Z,1019.14
2018-07-19T02:07:05.180Z,1019.15
2018-07-19T02:08:32.487Z,1019.17
2018-07-19T02:09:59.886Z,1019.14
2018-07-19T02:11:27.083Z,1019.16
2018-07-19T02:12:54.464Z,1019.15
2018-07-19T02:14:21.908Z,1019.16
2018-07-19T02:15:49.141Z,1019.17
2018-07-19T02:17:16.672Z,1019.16
2018-07-19T02:18:44.241Z,1019.17
2018-07-19T02:20:11.638Z,1019.17
2018-07-19T02:21:39.037Z,1019.18
2018-07-19T02:23:06.152Z,1019.19
2018-07-19T02:24:33.642Z,1019.21
2018-07-19T02:26:00.969Z,1019.22
2018-07-19T02:27:28.125Z,1019.21
2018-07-19T02:28:55.617Z,1019.25
2018-07-19T02:30:23.065Z,1019.24
2018-07-19T02:31:50.362Z,1019.25
2018-07-19T02:33:17.486Z,1019.23
2018-07-19T02:34:44.495Z,1019.23
2018-07-19T02:36:11.500Z,1019.24
2018-07-19T02:37:38.907Z,1019.24
2018-07-19T02:39:06.080Z,1019.27
2018-07-19T02:40:33.049Z,1019.28
2018-07-19T02:42:00.522Z,1019.27
2018-07-19T02:43:28.039Z,1019.29
2018-07-19T02:44:55.426Z,1019.27
2018-07-19T02:46:22.733Z,1019.27
2018-07-19T02:47:50.247Z,1019.27
2018-07-19T02:49:17.680Z,1019.25
2018-07-19T02:50:44.754Z,1019.25
2018-07-19T02:52:12.097Z,1019.27
2018-07-19T02:53:39.480Z,1019.25
2018-07-19T02:55:06.849Z,1019.25
2018-07-19T02:56:34.143Z,1019.24
2018-07-19T02:58:01.585Z,1019.28
2018-07-19T02:59:28.954Z,1019.28
2018-07-19T03:00:56.517Z,1019.29
2018-07-19T03:02:23.976Z,1019.31
2018-07-19T03:03:51.277Z,1019.31
2018-07-19T03:05:18.626Z,1019.32
2018-07-19T03:06:45.550Z,1019.31
2018-07-19T03:08:13.141Z,1019.30
2018-07-19T03:09:40.390Z,1019.31
2018-07-19T03:11:07.942Z,1019.29
2018-07-19T03:12:35.315Z,1019.28
2018-07-19T03:14:02.597Z,1019.27
2018-07-19T03:15:29.911Z,1019.27
2018-07-19T03:16:57.453Z,1019.27
2018-07-19T03:18:24.739Z,1019.28
2018-07-19T03:19:52.118Z,1019.29
2018-07-19T03:21:19.188Z,1019.31
2018-07-19T03:22:46.749Z,1019.29
2018-07-19T03:24:13.860Z,1019.29
2018-07-19T03:25:41.241Z,1019.28
2018-07-19T03:27:08.570Z,1019.28
2018-07-19T03:28:36.305Z,1019.30
2018-07-19T03:30:03.287Z,1019.30
2018-07-19T03:31:30.539Z,1019.34
2018-07-19T03:32:58.047Z,1019.35
2018-07-19T03:34:25.265Z,1019.34
2018-07-19T03:35:52.791Z,1019.38
2018-07-19T03:37:20.324Z,1019.40
2018-07-19T03:38:47.602Z,1019.40
2018-07-19T03:40:15.164Z,1019.42
2018-07-19T03:41:42.365Z,1019.41
2018-07-19T03:43:09.671Z,1019.43
2018-07-19T03:44:37.306Z,1019.43
2018-07-19T03:46:04.563Z,1019.42
2018-07-19T03:47:31.665Z,1019.41
2018-07-19T03:48:58.911Z,1019.40
2018-07-19T03:50:26.219Z,1019.40
2018-07-19T03:51:53.615Z,1019.39
2018-07-19T03:53:21.124Z,1019.38
2018-07-19T03:54:48.253Z,1019.39
2018-07-19T03:56:15.910Z,1019.41
2018-07-19T03:57:43.412Z,1019.40
2018-07-19T03:59:10.355Z,1019.43
2018-07-19T04:00:37.770Z,1019.45
2018-07-19T04:02:05.029Z,1019.47
2018-07-19T04:03:35.414Z,1019.45
2018-07-19T04:04:59.686Z,1019.45
2018-07-19T04:06:26.987Z,1019.46
2018-07-19T04:07:54.322Z,1019.47
2018-07-19T04:09:21.850Z,1019.48
2018-07-19T04:10:49.216Z,1019.49
2018-07-19T04:12:16.808Z,1019.49
2018-07-19T04:13:44.215Z,1019.49
2018-07-19T04:15:11.561Z,1019.48
2018-07-19T04:16:38.913Z,1019.50
2018-07-19T04:18:06.358Z,1019.48
2018-07-19T04:19:33.426Z,1019.49
2018-07-19T04:21:00.626Z,1019.51
2018-07-19T04:22:27.590Z,1019.52
2018-07-19T04:23:55.147Z,1019.53
2018-07-19T04:25:22.547Z,1019.51
2018-07-19T04:26:50.075Z,1019.55
2018-07-19T04:28:17.091Z,1019.57
2018-07-19T04:29:44.480Z,1019.61
2018-07-19T04:31:12.040Z,1019.58
2018-07-19T04:32:39.557Z,1019.59
2018-07-19T04:34:07.009Z,1019.57
2018-07-19T04:35:34.392Z,1019.57
2018-07-19T04:37:01.966Z,1019.59
2018-07-19T04:38:28.781Z,1019.58
2018-07-19T04:39:55.971Z,1019.57
2018-07-19T04:41:23.548Z,1019.63
2018-07-19T04:42:51.243Z,1019.63
2018-07-19T04:44:18.508Z,1019.64
2018-07-19T04:45:46.068Z,1019.64
2018-07-19T04:47:13.421Z,1019.66
2018-07-19T04:48:40.525Z,1019.67
2018-07-19T04:50:07.641Z,1019.66
2018-07-19T04:51:34.897Z,1019.70
2018-07-19T04:53:02.314Z,1019.70
2018-07-19T04:54:29.526Z,1019.71
2018-07-19T04:55:56.529Z,1019.71
2018-07-19T04:57:24.071Z,1019.72
2018-07-19T04:58:51.248Z,1019.73
2018-07-19T05:00:18.169Z,1019.72
2018-07-19T05:01:45.271Z,1019.72
2018-07-19T05:03:12.400Z,1019.74
2018-07-19T05:04:39.937Z,1019.76
2018-07-19T05:06:07.348Z,1019.75
2018-07-19T05:07:34.876Z,1019.72
2018-07-19T05:09:02.039Z,1019.75
2018-07-19T05:10:29.569Z,1019.75
2018-07-19T05:11:56.529Z,1019.73
2018-07-19T05:13:23.635Z,1019.73
2018-07-19T05:14:50.769Z,1019.73
2018-07-19T05:16:18.332Z,1019.67
2018-07-19T05:17:45.974Z,1019.67
2018-07-19T05:19:13.286Z,1019.70
2018-07-19T05:20:40.885Z,1019.74
2018-07-19T05:22:08.428Z,1019.73
2018-07-19T05:23:35.895Z,1019.79
2018-07-19T05:25:03.019Z,1019.77
2018-07-19T05:26:30.315Z,1019.82
2018-07-19T05:27:57.236Z,1019.81
2018-07-19T05:29:24.395Z,1019.81
2018-07-19T05:30:51.450Z,1019.84
2018-07-19T05:32:18.741Z,1019.86
2018-07-19T05:33:45.662Z,1019.84
2018-07-19T05:35:12.712Z,1019.84
2018-07-19T05:36:39.930Z,1019.79
2018-07-19T05:38:07.488Z,1019.80
2018-07-19T05:39:34.398Z,1019.81
2018-07-19T05:41:01.859Z,1019.81
2018-07-19T05:42:28.962Z,1019.81
2018-07-19T05:43:56.511Z,1019.88
2018-07-19T05:45:24.133Z,1019.87
2018-07-19T05:46:51.308Z,1019.90
2018-07-19T05:48:18.752Z,1019.92
2018-07-19T05:49:46.236Z,1019.88
2018-07-19T05:51:13.772Z,1019.89
2018-07-19T05:52:41.256Z,1019.91
2018-07-19T05:54:08.857Z,1019.87
2018-07-19T05:55:36.292Z,1019.86
2018-07-19T05:57:03.608Z,1019.81
2018-07-19T05:58:31.286Z,1019.79
2018-07-19T05:59:58.419Z,1019.73
2018-07-19T06:01:25.693Z,1019.68
2018-07-19T06:02:53.254Z,1019.69
2018-07-19T06:04:20.720Z,1019.64
2018-07-19T06:05:48.187Z,1019.63
2018-07-19T06:07:15.678Z,1019.64
2018-07-19T06:08:42.965Z,1019.68
2018-07-19T06:10:10.351Z,1019.67
2018-07-19T06:11:37.703Z,1019.66
2018-07-19T06:13:05.222Z,1019.69
2018-07-19T06:14:32.279Z,1019.68
2018-07-19T06:15:59.901Z,1019.71
2018-07-19T06:17:27.434Z,1019.70
2018-07-19T06:18:54.974Z,1019.68
2018-07-19T06:20:22.119Z,1019.68
2018-07-19T06:21:49.756Z,1019.70
2018-07-19T06:23:17.324Z,1019.72
2018-07-19T06:24:44.362Z,1019.72
2018-07-19T06:26:11.887Z,1019.74
2018-07-19T06:27:39.210Z,1019.74
2018-07-19T06:29:06.900Z,1019.73
2018-07-19T06:30:33.792Z,1019.74
2018-07-19T06:32:01.303Z,1019.74
2018-07-19T06:33:28.690Z,1019.74
2018-07-19T06:34:56.124Z,1019.71
2018-07-19T06:36:23.516Z,1019.72
2018-07-19T06:37:50.410Z,1019.71
2018-07-19T06:39:17.895Z,1019.76
2018-07-19T06:40:45.147Z,1019.76
2018-07-19T06:42:12.611Z,1019.78
2018-07-19T06:43:40.149Z,1019.80
2018-07-19T06:45:07.594Z,1019.77
2018-07-19T06:46:34.953Z,1019.77
2018-07-19T06:48:02.538Z,1019.82
2018-07-19T06:49:30.112Z,1019.84
2018-07-19T06:50:57.647Z,1019.83
2018-07-19T06:52:25.213Z,1019.83
2018-07-19T06:53:52.967Z,1019.80
2018-07-19T06:55:20.310Z,1019.76
2018-07-19T06:56:47.661Z,1019.76
2018-07-19T06:58:15.449Z,1019.77
2018-07-19T06:59:43.032Z,1019.76
2018-07-19T07:01:10.425Z,1019.77
2018-07-19T07:02:37.946Z,1019.75
2018-07-19T07:04:05.581Z,1019.79
2018-07-19T07:05:33.258Z,1019.81
2018-07-19T07:07:00.978Z,1019.85
2018-07-19T07:08:27.452Z,1019.81
2018-07-19T07:09:55.031Z,1019.83
2018-07-19T07:11:22.441Z,1019.86
2018-07-19T07:12:50.124Z,1019.86
2018-07-19T07:14:17.286Z,1019.85
2018-07-19T07:15:44.852Z,1019.85
2018-07-19T07:17:12.355Z,1019.85
2018-07-19T07:18:39.579Z,1019.89
2018-07-19T07:20:07.023Z,1019.88
2018-07-19T07:21:34.551Z,1019.91
2018-07-19T07:23:01.959Z,1019.90
2018-07-19T07:24:29.445Z,1019.81
2018-07-19T07:25:57.004Z,1019.81
2018-07-19T07:27:24.640Z,1019.79
2018-07-19T07:28:52.108Z,1019.81
2018-07-19T07:30:19.833Z,1019.84
2018-07-19T07:31:47.294Z,1019.77
2018-07-19T07:33:14.829Z,1019.77
2018-07-19T07:34:42.578Z,1019.78
2018-07-19T07:36:09.916Z,1019.83
2018-07-19T07:37:36.837Z,1019.82
2018-07-19T07:39:04.262Z,1019.85
2018-07-19T07:40:31.848Z,1019.89
2018-07-19T07:41:59.316Z,1019.89
2018-07-19T07:43:26.929Z,1019.93
2018-07-19T07:44:53.824Z,1019.98
2018-07-19T07:46:21.386Z,1019.96
2018-07-19T07:47:48.942Z,1019.99
2018-07-19T07:49:16.607Z,1019.95
2018-07-19T07:50:44.198Z,1019.93
2018-07-19T07:52:11.952Z,1019.95
2018-07-19T07:53:39.593Z,1019.92
2018-07-19T07:55:07.129Z,1019.97
2018-07-19T07:56:34.672Z,1020.01
2018-07-19T07:58:02.284Z,1019.99
2018-07-19T07:59:29.673Z,1020.00
2018-07-19T08:00:57.019Z,1020.03
2018-07-19T08:02:24.244Z,1019.99
2018-07-19T08:03:51.873Z,1020.01
2018-07-19T08:05:19.306Z,1020.00
2018-07-19T08:06:46.547Z,1019.98
2018-07-19T08:08:14.208Z,1020.00
2018-07-19T08:09:41.805Z,1020.02
2018-07-19T08:11:09.251Z,1019.99
2018-07-19T08:12:36.765Z,1019.97
2018-07-19T08:14:04.135Z,1019.92
2018-07-19T08:15:31.466Z,1019.89
2018-07-19T08:16:59.209Z,1019.90
2018-07-19T08:18:26.584Z,1019.88
2018-07-19T08:19:54.217Z,1019.95
2018-07-19T08:21:21.922Z,1019.91
2018-07-19T08:22:49.519Z,1019.92
2018-07-19T08:24:17.123Z,1019.86
2018-07-19T08:25:44.525Z,1019.82
2018-07-19T08:27:11.887Z,1019.81
2018-07-19T08:28:39.209Z,1019.77
2018-07-19T08:30:06.718Z,1019.80
2018-07-19T08:31:34.238Z,1019.78
2018-07-19T08:33:01.731Z,1019.79
2018-07-19T08:34:28.793Z,1019.85
2018-07-19T08:35:56.383Z,1019.81
2018-07-19T08:37:23.885Z,1019.84
2018-07-19T08:38:51.407Z,1019.82
2018-07-19T08:40:18.959Z,1019.86
2018-07-19T08:41:46.556Z,1019.84
2018-07-19T08:43:13.966Z,1019.84
2018-07-19T08:44:41.277Z,1019.89
2018-07-19T08:46:08.828Z,1019.88
2018-07-19T08:47:36.353Z,1019.92
2018-07-19T08:49:03.722Z,1019.90
2018-07-19T08:50:31.397Z,1019.93
2018-07-19T08:51:58.752Z,1019.90
2018-07-19T08:53:25.904Z,1019.89
2018-07-19T08:54:53.255Z,1019.86
2018-07-19T08:56:21.081Z,1019.87
2018-07-19T08:57:48.446Z,1019.86
2018-07-19T08:59:16.019Z,1019.87
2018-07-19T09:00:43.276Z,1019.85
2018-07-19T09:02:10.731Z,1019.90
2018-07-19T09:03:38.345Z,1019.90
2018-07-19T09:05:05.829Z,1019.88
2018-07-19T09:06:33.273Z,1019.88
2018-07-19T09:08:00.815Z,1019.87
2018-07-19T09:09:28.459Z,1019.94
2018-07-19T09:10:56.078Z,1019.92
2018-07-19T09:12:23.148Z,1019.94
2018-07-19T09:13:50.799Z,1019.97
2018-07-19T09:15:18.586Z,1019.97
2018-07-19T09:16:46.269Z,1019.95
2018-07-19T09:18:13.853Z,1019.91
2018-07-19T09:19:41.505Z,1019.92
2018-07-19T09:21:08.958Z,1019.95
2018-07-19T09:22:36.403Z,1019.96
2018-07-19T09:24:04.019Z,1019.98
2018-07-19T09:25:31.486Z,1019.85
2018-07-19T09:26:58.740Z,1019.95
2018-07-19T09:28:26.304Z,1019.95
2018-07-19T09:29:53.964Z,1020.02
2018-07-19T09:31:21.228Z,1020.03
2018-07-19T09:32:48.742Z,1019.97
2018-07-19T09:34:16.445Z,1020.01
2018-07-19T09:35:44.053Z,1020.06
2018-07-19T09:37:11.705Z,1020.01
2018-07-19T09:38:39.279Z,1020.01
2018-07-19T09:40:06.636Z,1020.02
2018-07-19T09:41:34.117Z,1020.02
2018-07-19T09:43:01.549Z,1020.08
2018-07-19T09:44:29.151Z,1020.04
2018-07-19T09:45:56.540Z,1020.08
2018-07-19T09:47:23.736Z,1020.02
2018-07-19T09:48:50.706Z,1020.02
2018-07-19T09:50:18.209Z,1020.05
2018-07-19T09:51:45.477Z,1020.10
2018-07-19T09:53:13.106Z,1020.10
2018-07-19T09:54:40.693Z,1020.13
2018-07-19T09:56:07.992Z,1020.18
2018-07-19T09:57:35.650Z,1020.16
2018-07-19T09:59:02.998Z,1020.15
2018-07-19T10:00:30.460Z,1020.17
2018-07-19T10:01:57.831Z,1020.15
2018-07-19T10:03:25.473Z,1020.16
2018-07-19T10:04:53.030Z,1020.15
2018-07-19T10:06:20.481Z,1020.12
2018-07-19T10:07:48.297Z,1020.12
2018-07-19T10:09:15.802Z,1020.06
2018-07-19T10:10:43.345Z,1020.06
2018-07-19T10:12:10.640Z,1020.05
2018-07-19T10:13:38.272Z,1020.07
2018-07-19T10:15:05.830Z,1020.06
2018-07-19T10:16:33.435Z,1020.03
2018-07-19T10:18:00.975Z,1020.05
2018-07-19T10:19:28.280Z,1020.04
2018-07-19T10:20:55.943Z,1020.07
2018-07-19T10:22:22.932Z,1020.10
2018-07-19T10:23:50.094Z,1020.13
2018-07-19T10:25:17.466Z,1020.09
2018-07-19T10:26:44.815Z,1020.09
2018-07-19T10:28:12.497Z,1020.13
2018-07-19T10:29:40.026Z,1020.16
2018-07-19T10:31:07.307Z,1020.21
2018-07-19T10:32:34.906Z,1020.22
2018-07-19T10:34:02.127Z,1020.21
2018-07-19T10:35:29.387Z,1020.14
2018-07-19T10:36:57.064Z,1020.14
2018-07-19T10:38:24.106Z,1020.15
2018-07-19T10:39:51.610Z,1020.13
2018-07-19T10:41:18.716Z,1020.18
2018-07-19T10:42:46.198Z,1020.19
2018-07-19T10:44:13.717Z,1020.19
2018-07-19T10:45:40.472Z,1020.20
2018-07-19T10:47:08.102Z,1020.21
2018-07-19T10:48:35.404Z,1020.25
2018-07-19T10:50:02.818Z,1020.23
2018-07-19T10:51:30.006Z,1020.16
2018-07-19T10:52:56.963Z,1020.17
2018-07-19T10:54:24.618Z,1020.16
2018-07-19T10:55:51.731Z,1020.18
2018-07-19T10:57:19.051Z,1020.15
2018-07-19T10:58:46.472Z,1020.16
2018-07-19T11:00:13.657Z,1020.14
2018-07-19T11:01:41.243Z,1020.13
2018-07-19T11:03:08.667Z,1020.12
2018-07-19T11:04:35.504Z,1020.04
2018-07-19T11:06:02.922Z,1020.09
2018-07-19T11:07:30.510Z,1020.13
2018-07-19T11:08:57.873Z,1020.07
2018-07-19T11:10:25.570Z,1020.05
2018-07-19T11:11:53.155Z,1020.09
2018-07-19T11:13:19.984Z,1020.08
2018-07-19T11:14:47.262Z,1020.07
2018-07-19T11:16:14.951Z,1020.07
2018-07-19T11:17:42.412Z,1020.03
2018-07-19T11:19:09.608Z,1020.08
2018-07-19T11:20:37.291Z,1020.08
2018-07-19T11:22:04.293Z,1020.01
2018-07-19T11:23:31.163Z,1020.00
2018-07-19T11:24:58.671Z,1019.98
2018-07-19T11:26:26.259Z,1020.06
2018-07-19T11:27:53.872Z,1020.05
2018-07-19T11:29:21.425Z,1020.02
2018-07-19T11:30:48.808Z,1019.95
2018-07-19T11:32:16.060Z,1020.02
2018-07-19T11:33:43.453Z,1020.00
2018-07-19T11:35:11.137Z,1019.99
2018-07-19T11:36:37.870Z,1019.99
2018-07-19T11:38:05.239Z,1019.95
2018-07-19T11:39:32.420Z,1019.99
2018-07-19T11:40:59.847Z,1020.01
2018-07-19T11:42:27.239Z,1020.03
2018-07-19T11:43:54.041Z,1020.02
2018-07-19T11:45:21.606Z,1020.00
2018-07-19T11:46:48.838Z,1019.95
2018-07-19T11:48:16.361Z,1019.96
2018-07-19T11:49:43.700Z,1019.99
2018-07-19T11:51:10.897Z,1019.92
2018-07-19T11:52:38.237Z,1019.87
2018-07-19T11:54:05.879Z,1019.87
2018-07-19T11:55:33.157Z,1019.90
2018-07-19T11:57:00.300Z,1019.93
2018-07-19T11:58:28.022Z,1019.84
2018-07-19T11:59:55.656Z,1019.83
2018-07-19T12:01:22.889Z,1019.84
2018-07-19T12:02:50.530Z,1019.84
2018-07-19T12:04:18.246Z,1019.91
2018-07-19T12:05:45.537Z,1019.86
2018-07-19T12:07:12.903Z,1019.90
2018-07-19T12:08:40.590Z,1019.86
2018-07-19T12:10:08.166Z,1019.83
2018-07-19T12:11:35.512Z,1019.82
2018-07-19T12:13:03.079Z,1019.86
2018-07-19T12:14:30.628Z,1019.86
2018-07-19T12:15:58.027Z,1019.87
2018-07-19T12:17:25.388Z,1019.89
2018-07-19T12:18:53.160Z,1019.84
2018-07-19T12:20:20.210Z,1019.85
2018-07-19T12:21:47.942Z,1019.84
2018-07-19T12:23:15.513Z,1019.78
2018-07-19T12:24:42.738Z,1019.74
2018-07-19T12:26:10.168Z,1019.74
2018-07-19T12:27:37.612Z,1019.72
2018-07-19T12:29:05.048Z,1019.69
2018-07-19T12:30:32.631Z,1019.70
2018-07-19T12:31:59.990Z,1019.69
2018-07-19T12:33:27.012Z,1019.67
2018-07-19T12:34:54.670Z,1019.74
2018-07-19T12:36:22.382Z,1019.73
2018-07-19T12:37:49.945Z,1019.70
2018-07-19T12:39:17.594Z,1019.74
2018-07-19T12:40:45.137Z,1019.77
2018-07-19T12:42:12.660Z,1019.79
2018-07-19T12:43:40.328Z,1019.79
2018-07-19T12:45:07.979Z,1019.85
2018-07-19T12:46:35.498Z,1019.82
2018-07-19T12:48:02.999Z,1019.84
2018-07-19T12:49:30.618Z,1019.79
2018-07-19T12:50:58.268Z,1019.77
2018-07-19T12:52:25.458Z,1019.81
2018-07-19T12:53:53.149Z,1019.82
2018-07-19T12:55:20.566Z,1019.78
2018-07-19T12:56:48.329Z,1019.80
2018-07-19T12:58:16.050Z,1019.77
2018-07-19T12:59:43.754Z,1019.82
2018-07-19T13:01:11.394Z,1019.77
2018-07-19T13:02:38.527Z,1019.78
2018-07-19T13:04:05.567Z,1019.81
2018-07-19T13:05:32.539Z,1019.84
2018-07-19T13:06:59.799Z,1019.88
2018-07-19T13:08:27.333Z,1019.90
2018-07-19T13:09:55.076Z,1019.88
2018-07-19T13:11:22.741Z,1019.87
2018-07-19T13:12:50.399Z,1019.93
2018-07-19T13:14:18.101Z,1019.95
2018-07-19T13:15:45.532Z,1019.90
2018-07-19T13:17:13.249Z,1019.92
2018-07-19T13:18:40.779Z,1019.89
2018-07-19T13:20:08.469Z,1019.94
2018-07-19T13:21:35.755Z,1019.90
2018-07-19T13:23:03.395Z,1019.91
2018-07-19T13:24:30.751Z,1019.93
2018-07-19T13:25:57.920Z,1019.91
2018-07-19T13:27:25.168Z,1019.91
2018-07-19T13:28:52.644Z,1019.88
2018-07-19T13:30:20.442Z,1019.87
2018-07-19T13:31:48.036Z,1019.87
2018-07-19T13:33:15.521Z,1019.85
2018-07-19T13:34:42.920Z,1019.84
2018-07-19T13:36:10.624Z,1019.85
2018-07-19T13:37:37.973Z,1019.83
2018-07-19T13:39:05.512Z,1019.77
2018-07-19T13:40:33.187Z,1019.80
2018-07-19T13:42:00.226Z,1019.76
2018-07-19T13:43:28.021Z,1019.73
2018-07-19T13:44:55.584Z,1019.77
2018-07-19T13:46:23.233Z,1019.73
2018-07-19T13:47:50.917Z,1019.71
2018-07-19T13:49:18.075Z,1019.69
2018-07-19T13:50:45.871Z,1019.73
2018-07-19T13:52:13.442Z,1019.69
2018-07-19T13:53:40.944Z,1019.70
2018-07-19T13:55:08.552Z,1019.70
2018-07-19T13:56:35.978Z,1019.70
2018-07-19T13:58:02.721Z,1019.67
2018-07-19T13:59:30.288Z,1019.67
2018-07-19T14:00:57.978Z,1019.69
2018-07-19T14:02:25.573Z,1019.64
2018-07-19T14:03:53.055Z,1019.66
2018-07-19T14:05:20.503Z,1019.64
2018-07-19T14:06:48.088Z,1019.66
2018-07-19T14:08:15.613Z,1019.66
2018-07-19T14:09:43.305Z,1019.66
2018-07-19T14:11:10.714Z,1019.61
2018-07-19T14:12:38.471Z,1019.68
2018-07-19T14:14:05.924Z,1019.68
2018-07-19T14:15:33.460Z,1019.72
2018-07-19T14:17:00.985Z,1019.68
2018-07-19T14:18:28.468Z,1019.67
2018-07-19T14:19:55.903Z,1019.71
2018-07-19T14:21:23.102Z,1019.65
2018-07-19T14:22:50.546Z,1019.63
2018-07-19T14:24:17.896Z,1019.66
2018-07-19T14:25:45.483Z,1019.69
2018-07-19T14:27:22.755Z,1019.64
2018-07-19T14:28:50.218Z,1019.64
2018-07-19T14:30:18.026Z,1019.63
2018-07-19T14:31:45.347Z,1019.60
2018-07-19T14:33:12.852Z,1019.58
2018-07-19T14:34:40.406Z,1019.62
2018-07-19T14:36:07.696Z,1019.58
2018-07-19T14:37:35.422Z,1019.56
2018-07-19T14:39:02.966Z,1019.58
2018-07-19T14:40:30.211Z,1019.54
2018-07-19T14:41:57.463Z,1019.52
2018-07-19T14:43:24.917Z,1019.53
2018-07-19T14:44:52.594Z,1019.54
2018-07-19T14:46:20.191Z,1019.53
2018-07-19T14:47:47.878Z,1019.53
2018-07-19T14:49:15.487Z,1019.55
2018-07-19T14:50:43.084Z,1019.52
2018-07-19T14:52:10.657Z,1019.53
2018-07-19T14:53:38.281Z,1019.51
2018-07-19T14:55:05.920Z,1019.47
2018-07-19T14:56:33.553Z,1019.53
2018-07-19T14:58:01.123Z,1019.46
2018-07-19T14:59:28.610Z,1019.40
2018-07-19T15:00:56.278Z,1019.41
2018-07-19T15:02:23.596Z,1019.43
2018-07-19T15:03:51.157Z,1019.41
2018-07-19T15:05:18.205Z,1019.37
2018-07-19T15:06:45.499Z,1019.30
2018-07-19T15:08:13.037Z,1019.34
2018-07-19T15:09:40.509Z,1019.32
2018-07-19T15:11:07.981Z,1019.34
2018-07-19T15:12:35.693Z,1019.34
2018-07-19T15:14:03.181Z,1019.34
2018-07-19T15:15:30.834Z,1019.34
2018-07-19T15:16:58.657Z,1019.34
2018-07-19T15:18:26.118Z,1019.33
2018-07-19T15:19:53.605Z,1019.35
2018-07-19T15:21:21.121Z,1019.35
2018-07-19T15:22:48.845Z,1019.34
2018-07-19T15:24:16.288Z,1019.37
2018-07-19T15:25:44.040Z,1019.34
2018-07-19T15:27:11.526Z,1019.34
2018-07-19T15:28:39.072Z,1019.31
2018-07-19T15:30:06.634Z,1019.30
2018-07-19T15:31:34.095Z,1019.27
2018-07-19T15:33:01.638Z,1019.27
2018-07-19T15:34:29.206Z,1019.30
2018-07-19T15:35:56.758Z,1019.25
2018-07-19T15:37:24.092Z,1019.25
2018-07-19T15:38:51.466Z,1019.25
2018-07-19T15:40:18.996Z,1019.25
2018-07-19T15:41:46.576Z,1019.19
2018-07-19T15:43:14.194Z,1019.19
2018-07-19T15:44:41.428Z,1019.19
2018-07-19T15:46:09.077Z,1019.17
2018-07-19T15:47:36.612Z,1019.14
2018-07-19T15:49:04.246Z,1019.17
2018-07-19T15:50:31.439Z,1019.16
2018-07-19T15:51:58.934Z,1019.13
2018-07-19T15:53:26.278Z,1019.10
2018-07-19T15:54:53.395Z,1019.08
2018-07-19T15:56:21.137Z,1019.09
2018-07-19T15:57:48.760Z,1019.05
2018-07-19T15:59:16.377Z,1019.07
2018-07-19T16:00:43.818Z,1019.04
2018-07-19T16:02:11.403Z,1019.04
2018-07-19T16:03:38.315Z,1019.00
2018-07-19T16:05:06.041Z,1018.98
2018-07-19T16:06:33.604Z,1018.96
2018-07-19T16:08:01.000Z,1018.93
2018-07-19T16:09:28.598Z,1018.94
2018-07-19T16:10:55.996Z,1018.97
2018-07-19T16:12:23.419Z,1018.90
2018-07-19T16:13:51.099Z,1018.90
2018-07-19T16:15:18.491Z,1018.94
2018-07-19T16:16:46.109Z,1018.92
2018-07-19T16:18:13.378Z,1018.94
2018-07-19T16:19:41.066Z,1018.95
2018-07-19T16:21:08.581Z,1018.95
2018-07-19T16:22:35.992Z,1018.95
2018-07-19T16:24:03.659Z,1018.93
2018-07-19T16:25:31.110Z,1018.96
2018-07-19T16:26:57.932Z,1018.95
2018-07-19T16:28:25.516Z,1018.93
2018-07-19T16:29:52.526Z,1018.93
2018-07-19T16:31:20.119Z,1018.94
2018-07-19T16:32:47.653Z,1018.96
2018-07-19T16:34:15.378Z,1018.97
2018-07-19T16:35:42.917Z,1018.97
2018-07-19T16:37:10.193Z,1018.99
2018-07-19T16:38:37.653Z,1018.96
2018-07-19T16:40:05.163Z,1018.96
2018-07-19T16:41:32.459Z,1018.97
2018-07-19T16:43:00.177Z,1018.98
2018-07-19T16:44:27.224Z,1018.98
2018-07-19T16:45:54.970Z,1019.01
2018-07-19T16:47:22.560Z,1019.01
2018-07-19T16:48:50.207Z,1018.97
2018-07-19T16:50:17.849Z,1018.97
2018-07-19T16:51:45.455Z,1018.96
2018-07-19T16:53:12.982Z,1018.95
2018-07-19T16:54:40.287Z,1018.94
2018-07-19T16:56:07.900Z,1018.96
2018-07-19T16:57:35.282Z,1018.98
2018-07-19T16:59:02.872Z,1018.97
2018-07-19T17:00:30.359Z,1018.97
2018-07-19T17:01:58.091Z,1018.96
2018-07-19T17:03:25.555Z,1018.95
2018-07-19T17:04:53.098Z,1018.97
2018-07-19T17:06:20.653Z,1018.97
2018-07-19T17:07:48.351Z,1018.98
2018-07-19T17:09:15.599Z,1018.97
2018-07-19T17:10:42.997Z,1018.98
2018-07-19T17:12:10.757Z,1018.96
2018-07-19T17:13:38.140Z,1018.96
2018-07-19T17:15:05.850Z,1018.96
2018-07-19T17:16:33.344Z,1018.94
2018-07-19T17:18:00.659Z,1018.93
2018-07-19T17:19:28.284Z,1018.93
2018-07-19T17:20:55.876Z,1018.94
2018-07-19T17:22:23.558Z,1018.93
2018-07-19T17:23:50.971Z,1018.93
2018-07-19T17:25:18.612Z,1018.96
2018-07-19T17:26:46.210Z,1018.97
2018-07-19T17:28:13.852Z,1018.95
2018-07-19T17:29:41.458Z,1018.98
2018-07-19T17:31:08.879Z,1019.00
2018-07-19T17:32:36.379Z,1018.99
2018-07-19T17:34:03.632Z,1018.98
2018-07-19T17:35:31.185Z,1019.03
2018-07-19T17:36:58.660Z,1019.02